This is the latest recevied weather packets stored in our database for station/object HB9DDE-10. If no packets are shown the sender has not sent any weather packets the latest 10 day(s).
| Time | Temp. | Humidity | Pressure | Rain* | Wind** | Luminosity | Snow |
|---|---|---|---|---|---|---|---|
| 1776954215 | 22.22° C | 14% | 1023.9 hPa | 0 mm | - | - | - |
| 1776953925 | 22.22° C | 15% | 1023.9 hPa | 0 mm | - | - | - |
| 1776953615 | 22.22° C | 16% | 1024 hPa | 0 mm | - | - | - |
| 1776953324 | 22.78° C | 15% | 1024 hPa | 0 mm | - | - | - |
| 1776953014 | 22.22° C | 15% | 1024.1 hPa | 0 mm | - | - | - |
| 1776952724 | 22.22° C | 18% | 1024.3 hPa | 0 mm | - | - | - |
| 1776952414 | 22.22° C | 19% | 1024.2 hPa | 0 mm | - | - | - |
| 1776949714 | 21.67° C | 23% | 1024.6 hPa | 0 mm | - | - | - |
| 1776949425 | 21.67° C | 25% | 1024.7 hPa | 0 mm | - | - | - |
| 1776949117 | 21.11° C | 26% | 1024.8 hPa | 0 mm | - | - | - |
| 1776948827 | 20.56° C | 26% | 1024.8 hPa | 0 mm | - | - | - |
| 1776948516 | 20° C | 28% | 1024.8 hPa | 0 mm | - | - | - |
| 1776948227 | 19.44° C | 27% | 1024.9 hPa | 0 mm | - | - | - |
| 1776947916 | 20° C | 27% | 1024.8 hPa | 0 mm | - | - | - |
| 1776947625 | 20° C | 27% | 1024.9 hPa | 0 mm | - | - | - |
| 1776947315 | 20° C | 27% | 1025 hPa | 0 mm | - | - | - |
| 1776947025 | 20° C | 28% | 1025 hPa | 0 mm | - | - | - |
| 1776946715 | 20° C | 27% | 1025.1 hPa | 0 mm | - | - | - |
| 1776946428 | 19.44° C | 29% | 1025.1 hPa | 0 mm | - | - | - |
| 1776946117 | 19.44° C | 30% | 1025.1 hPa | 0 mm | - | - | - |
| 1776945828 | 19.44° C | 30% | 1025.1 hPa | 0 mm | - | - | - |
| 1776945519 | 18.89° C | 30% | 1025.1 hPa | 0 mm | - | - | - |
| 1776945228 | 18.89° C | 31% | 1025.2 hPa | 0 mm | - | - | - |
| 1776944917 | 18.89° C | 29% | 1025.2 hPa | 0 mm | - | - | - |
| 1776944627 | 18.89° C | 29% | 1025.2 hPa | 0 mm | - | - | - |
* Rain latest hour (hover to see other rain measurements)
** Current wind speed in m/s (hover to see current wind gust speed)